Time;durP1;ratioP1;P1;durP2;ratioP2;P2;SDS_P1;SDS_P2;PMS_P1;PMS_P2;Temp;Humidity;BMP_temperature;BMP_pressure;BME280_temperature;BME280_humidity;BME280_pressure;Samples;Min_cycle;Max_cycle;Signal;HPM_P1;HPM_P2
2023/01/21 00:02:50;;;;;;;32.58;19.80;;;;;;;2.49;82.54;100328.57;1758710;81;21772;-86
2023/01/21 00:06:01;;;;;;;37.25;17.62;;;;;;;2.46;82.75;100330.66;1760114;81;21211;-79
2023/01/21 00:09:06;;;;;;;40.43;25.48;;;;;;;2.50;82.66;100332.13;1759847;81;21200;-81
2023/01/21 00:12:12;;;;;;;33.25;21.52;;;;;;;2.43;82.83;100322.79;1759217;81;21199;-80
2023/01/21 00:15:18;;;;;;;33.60;20.45;;;;;;;2.42;82.99;100318.37;1759889;81;21167;-85
2023/01/21 00:18:25;;;;;;;41.60;23.07;;;;;;;2.38;83.04;100314.20;1758695;81;21187;-80
2023/01/21 00:21:30;;;;;;;40.83;13.75;;;;;;;2.40;82.94;100306.83;1759968;81;21168;-79
2023/01/21 00:24:37;;;;;;;29.70;15.38;;;;;;;2.30;83.19;100319.72;1760026;81;21148;-87
2023/01/21 00:27:36;;;;;;;40.95;19.77;;;;;;;2.26;83.35;100311.52;1759080;81;21211;-87
2023/01/21 00:30:29;;;;;;;35.78;18.42;;;;;;;2.35;83.13;100330.14;1758559;81;21191;-80
2023/01/21 00:33:36;;;;;;;43.98;21.68;;;;;;;2.33;82.82;100325.37;1758653;81;21202;-80
2023/01/21 00:36:42;;;;;;;33.42;19.07;;;;;;;2.34;82.71;100328.44;1759811;81;21180;-87
2023/01/21 00:39:46;;;;;;;42.78;19.35;;;;;;;2.41;82.43;100336.42;1760056;81;21140;-80
2023/01/21 00:42:51;;;;;;;38.63;14.70;;;;;;;2.41;82.11;100345.02;1759963;81;21192;-80
2023/01/21 00:45:56;;;;;;;28.45;17.67;;;;;;;2.44;81.80;100342.91;1760101;81;21126;-82
2023/01/21 00:49:02;;;;;;;42.48;22.17;;;;;;;2.47;81.50;100335.91;1760130;81;21148;-86
2023/01/21 00:52:06;;;;;;;37.20;21.50;;;;;;;2.45;81.32;100325.75;1760026;81;21171;-80
2023/01/21 00:55:13;;;;;;;36.60;18.92;;;;;;;2.42;81.30;100321.94;1760087;81;21179;-85
2023/01/21 00:58:19;;;;;;;32.78;14.38;;;;;;;2.34;81.56;100328.44;1759604;81;21167;-87
2023/01/21 01:05:32;;;;;;;50.80;21.73;;;;;;;2.47;80.76;100331.02;1752468;81;21129;-85
2023/01/21 01:12:20;;;;;;;31.57;12.37;;;;;;;2.35;80.78;100321.19;1716629;83;21666;-87
2023/01/21 01:15:28;;;;;;;32.73;15.68;;;;;;;2.25;80.84;100321.92;1738763;82;21145;-86
2023/01/21 01:22:35;;;;;;;36.30;17.62;;;;;;;2.20;81.25;100318.73;1731634;82;21184;-87
2023/01/21 01:25:40;;;;;;;29.95;14.78;;;;;;;2.17;81.36;100314.95;1748510;82;21164;-81
2023/01/21 01:28:46;;;;;;;31.80;16.70;;;;;;;2.19;81.16;100329.17;1732219;83;21232;-86
2023/01/21 01:31:52;;;;;;;29.23;11.80;;;;;;;2.24;80.87;100326.11;1747216;81;21196;-79
2023/01/21 01:34:57;;;;;;;25.05;14.75;;;;;;;2.29;80.53;100316.66;1732737;83;21181;-86
2023/01/21 01:38:07;;;;;;;24.25;11.70;;;;;;;2.01;81.12;100319.84;1747716;81;21215;-84
2023/01/21 01:41:12;;;;;;;27.90;13.65;;;;;;;2.00;81.18;100313.59;1747810;82;21168;-81
2023/01/21 01:45:00;;;;;;;38.73;14.28;;;;;;;2.04;80.94;100306.12;1731764;83;21749;-86
2023/01/21 01:48:08;;;;;;;36.58;13.98;;;;;;;1.99;81.08;100304.28;1747794;81;21239;-86
2023/01/21 01:51:13;;;;;;;37.90;16.70;;;;;;;1.98;80.88;100294.47;1732028;83;21209;-85
2023/01/21 01:54:21;;;;;;;26.40;12.78;;;;;;;1.93;80.99;100299.34;1748567;82;21174;-86
2023/01/21 01:57:30;;;;;;;22.87;9.90;;;;;;;1.86;80.99;100315.16;1732257;83;21201;-79
2023/01/21 02:00:35;;;;;;;30.43;14.93;;;;;;;1.94;80.94;100314.08;1748646;82;21148;-84
2023/01/21 02:03:48;;;;;;;35.68;17.65;;;;;;;1.87;81.06;100310.13;1731474;83;21204;-86
2023/01/21 02:06:53;;;;;;;36.73;16.70;;;;;;;1.84;81.08;100306.84;1747436;81;21208;-85
2023/01/21 02:09:59;;;;;;;24.63;12.15;;;;;;;1.81;81.07;100308.42;1732503;83;21157;-86
2023/01/21 02:13:04;;;;;;;23.98;13.13;;;;;;;1.87;80.73;100333.55;1743322;81;21223;-86
2023/01/21 02:16:34;;;;;;;22.87;10.53;;;;;;;1.81;80.87;100346.18;1732364;83;21149;-79
2023/01/21 02:20:10;;;;;;;34.13;10.82;;;;;;;1.85;80.85;100377.34;1743272;82;21153;-83
2023/01/21 02:23:46;;;;;;;27.20;9.83;;;;;;;1.87;80.58;100406.38;1731210;83;21197;-87
2023/01/21 02:27:31;;;;;;;33.00;19.15;;;;;;;1.83;80.72;100396.80;1743281;81;21761;-86
2023/01/21 02:30:58;;;;;;;25.70;10.05;;;;;;;1.84;80.70;100385.06;1732425;83;21173;-86
2023/01/21 02:34:32;;;;;;;28.07;11.55;;;;;;;1.83;80.59;100372.53;1743215;82;21169;-87
2023/01/21 02:38:05;;;;;;;36.20;20.75;;;;;;;1.84;80.58;100354.05;1741730;81;21721;-86
2023/01/21 02:41:22;;;;;;;24.12;9.88;;;;;;;1.81;80.81;100364.56;1743275;82;21136;-81
2023/01/21 02:44:45;;;;;;;25.02;7.92;;;;;;;1.93;80.23;100419.39;1732393;83;21182;-80
2023/01/21 02:48:29;;;;;;;24.55;8.80;;;;;;;1.80;80.48;100422.19;1747054;79;21200;-81
2023/01/21 02:51:34;;;;;;;20.90;11.03;;;;;;;1.74;81.00;100428.03;1764969;81;21200;-81
2023/01/21 02:54:51;;;;;;;20.40;8.88;;;;;;;1.91;80.93;100426.27;1763718;81;21153;-87
2023/01/21 02:57:58;;;;;;;48.63;15.13;;;;;;;2.00;80.40;100419.30;1764343;81;21200;-80
2023/01/21 03:01:27;;;;;;;26.68;9.75;;;;;;;2.00;80.43;100443.58;1763737;81;21212;-85
2023/01/21 03:04:50;;;;;;;31.25;14.18;;;;;;;2.07;80.01;100404.38;1716058;83;21734;-83
2023/01/21 03:08:00;;;;;;;37.08;14.55;;;;;;;2.17;79.55;100381.08;1713943;82;21763;-80
2023/01/21 03:11:25;;;;;;;26.15;15.15;;;;;;;2.41;78.42;100363.91;1640567;87;21222;-86
2023/01/21 03:18:17;;;;;;;28.35;16.02;;;;;;;2.13;78.97;100336.42;1654156;86;21209;-86
2023/01/21 03:21:29;;;;;;;19.77;9.65;;;;;;;1.87;79.76;100365.92;1736194;82;21161;-87
2023/01/21 03:24:34;;;;;;;20.57;9.70;;;;;;;1.81;80.32;100428.45;1735978;82;21166;-87
2023/01/21 03:27:40;;;;;;;18.73;8.43;;;;;;;1.87;80.37;100432.87;1736326;82;21237;-81
2023/01/21 03:30:48;;;;;;;23.32;12.15;;;;;;;1.68;80.91;100431.20;1736298;82;21809;-81
2023/01/21 03:33:55;;;;;;;28.10;10.95;;;;;;;1.74;81.09;100373.64;1736294;82;21227;-81
2023/01/21 03:37:07;;;;;;;30.20;14.95;;;;;;;1.78;80.92;100371.54;1736084;82;21180;-80
2023/01/21 03:40:32;;;;;;;26.60;14.43;;;;;;;1.77;80.95;100327.53;1736500;82;21149;-86
2023/01/21 03:43:37;;;;;;;34.03;12.78;;;;;;;1.66;81.23;100319.92;1735056;82;21213;-85
2023/01/21 03:46:57;;;;;;;26.52;9.73;;;;;;;1.80;80.81;100357.46;1734693;82;21169;-86
2023/01/21 03:50:24;;;;;;;24.85;10.58;;;;;;;1.81;80.87;100382.10;1736465;82;21154;-85
2023/01/21 03:53:31;;;;;;;23.40;9.75;;;;;;;1.83;81.03;100356.34;1736498;82;21232;-86
2023/01/21 03:56:35;;;;;;;28.70;10.00;;;;;;;1.94;80.67;100375.27;1736396;82;21200;-80
2023/01/21 03:59:41;;;;;;;29.55;14.73;;;;;;;1.96;80.47;100365.20;1736543;82;21146;-86
2023/01/21 04:02:47;;;;;;;27.40;13.93;;;;;;;1.96;80.53;100380.05;1736370;82;21225;-80
2023/01/21 04:05:53;;;;;;;34.63;15.98;;;;;;;1.89;80.92;100376.13;1736576;82;21153;-82
2023/01/21 04:09:00;;;;;;;29.48;13.90;;;;;;;1.81;81.27;100362.36;1738508;82;21797;-80
2023/01/21 04:12:05;;;;;;;41.25;25.45;;;;;;;1.90;80.85;100369.25;1745659;81;21217;-87
2023/01/21 04:15:13;;;;;;;29.12;14.78;;;;;;;1.92;80.60;100355.63;1746959;82;21220;-80
2023/01/21 04:18:20;;;;;;;28.52;13.62;;;;;;;1.79;80.54;100353.91;1746883;82;21738;-85
2023/01/21 04:21:25;;;;;;;43.50;17.50;;;;;;;1.71;81.35;100362.22;1746972;82;21188;-86
2023/01/21 04:24:32;;;;;;;42.03;19.50;;;;;;;2.05;80.34;100338.36;1745411;81;21236;-87
2023/01/21 04:27:38;;;;;;;28.98;15.85;;;;;;;2.00;80.52;100341.06;1745643;82;21256;-85
2023/01/21 04:30:45;;;;;;;20.17;10.30;;;;;;;1.91;80.81;100348.52;1745618;82;21228;-85
2023/01/21 04:33:51;;;;;;;30.77;11.95;;;;;;;1.94;81.04;100359.09;1745549;81;21205;-79
2023/01/21 04:36:58;;;;;;;28.35;14.20;;;;;;;1.87;80.99;100368.63;1745453;82;21223;-79
2023/01/21 04:40:03;;;;;;;34.30;17.65;;;;;;;1.93;81.21;100373.06;1746820;82;21714;-80
2023/01/21 04:43:09;;;;;;;35.33;16.00;;;;;;;1.87;81.34;100368.63;1745953;82;21203;-86
2023/01/21 04:46:16;;;;;;;28.92;13.08;;;;;;;1.96;81.36;100382.74;1746413;82;21200;-86
2023/01/21 04:49:22;;;;;;;30.95;11.30;;;;;;;2.00;81.21;100393.17;1746880;82;21161;-80
2023/01/21 04:52:28;;;;;;;24.77;11.22;;;;;;;1.99;81.19;100431.08;1746113;82;21196;-80
2023/01/21 04:55:33;;;;;;;23.67;11.28;;;;;;;1.98;81.13;100442.36;1746911;82;21145;-81
2023/01/21 04:58:40;;;;;;;25.97;11.60;;;;;;;1.90;81.83;100446.63;1745478;82;21184;-79
2023/01/21 05:01:48;;;;;;;27.77;11.30;;;;;;;1.86;82.15;100457.27;1745833;82;21765;-79
2023/01/21 05:04:54;;;;;;;39.60;12.45;;;;;;;1.79;82.65;100444.75;1745577;82;21208;-81
2023/01/21 05:08:00;;;;;;;33.80;11.85;;;;;;;1.83;82.80;100434.56;1745824;82;21737;-85
2023/01/21 05:11:05;;;;;;;25.52;14.60;;;;;;;1.73;83.15;100442.50;1749154;82;21238;-87
2023/01/21 05:14:11;;;;;;;29.67;10.18;;;;;;;1.85;82.84;100435.33;1735907;82;21286;-86
2023/01/21 05:17:16;;;;;;;36.15;12.75;;;;;;;1.85;82.82;100451.52;1704968;84;21210;-79
2023/01/21 05:20:22;;;;;;;33.40;14.18;;;;;;;1.88;82.58;100444.02;1735176;82;21169;-80
2023/01/21 05:23:27;;;;;;;30.57;14.55;;;;;;;1.95;82.33;100447.98;1704415;84;21290;-79
2023/01/21 05:26:32;;;;;;;33.28;17.10;;;;;;;1.96;82.38;100456.93;1735243;82;21176;-79
2023/01/21 05:29:38;;;;;;;31.07;13.38;;;;;;;2.02;82.10;100451.95;1704348;84;21720;-86
2023/01/21 05:32:43;;;;;;;33.75;15.30;;;;;;;2.03;82.03;100446.05;1735604;82;21736;-82
2023/01/21 05:35:50;;;;;;;33.60;16.15;;;;;;;2.02;81.97;100447.01;1705815;84;21231;-86
2023/01/21 05:38:54;;;;;;;26.73;13.60;;;;;;;2.02;81.87;100450.59;1736621;82;21160;-82
2023/01/21 05:41:54;;;;;;;31.65;16.45;;;;;;;1.93;81.95;100459.39;1704593;83;21215;-79
2023/01/21 05:45:00;;;;;;;38.13;17.40;;;;;;;2.12;81.64;100452.55;1735717;82;21156;-86
2023/01/21 05:48:05;;;;;;;34.00;18.30;;;;;;;2.16;81.18;100452.20;1705667;84;21198;-87
2023/01/21 05:51:04;;;;;;;31.93;14.87;;;;;;;2.05;81.29;100453.53;1736554;82;21204;-87
2023/01/21 05:53:58;;;;;;;27.82;14.38;;;;;;;2.00;81.51;100466.52;1705396;84;21195;-83
2023/01/21 05:57:03;;;;;;;45.90;21.27;;;;;;;1.95;81.85;100468.70;1736336;82;21732;-79
2023/01/21 06:00:02;;;;;;;29.60;14.05;;;;;;;1.94;81.97;100475.09;1705687;84;21191;-85
2023/01/21 06:03:09;;;;;;;32.98;15.18;;;;;;;1.94;82.20;100492.13;1736237;82;21164;-87
2023/01/21 06:06:15;;;;;;;26.25;13.68;;;;;;;2.07;81.84;100505.55;1704595;83;21242;-81
2023/01/21 06:09:21;;;;;;;24.05;13.95;;;;;;;2.16;81.63;100491.33;1736704;82;21152;-81
2023/01/21 06:12:27;;;;;;;31.57;13.45;;;;;;;2.25;81.19;100491.97;1711402;83;21207;-87
2023/01/21 06:15:32;;;;;;;27.95;13.72;;;;;;;2.13;81.53;100500.17;1756145;81;21180;-81
2023/01/21 06:18:41;;;;;;;35.15;13.38;;;;;;;1.72;82.74;100504.16;1756735;81;21196;-81
2023/01/21 06:21:47;;;;;;;34.35;15.93;;;;;;;2.09;82.31;100504.08;1755195;81;21196;-79
2023/01/21 06:24:53;;;;;;;30.62;14.50;;;;;;;2.17;81.95;100503.02;1756407;81;21196;-79
2023/01/21 06:28:00;;;;;;;29.10;14.13;;;;;;;2.29;81.61;100497.50;1756233;81;21720;-80
2023/01/21 06:30:59;;;;;;;25.23;13.40;;;;;;;2.14;81.63;100500.05;1759371;81;21142;-80
2023/01/21 06:34:05;;;;;;;39.63;16.27;;;;;;;2.29;81.41;100488.06;1756192;81;21329;-85
2023/01/21 06:37:10;;;;;;;34.90;15.25;;;;;;;2.42;80.86;100485.77;1755543;81;21261;-81
2023/01/21 06:40:16;;;;;;;30.20;16.52;;;;;;;2.48;80.77;100492.02;1756116;81;21165;-80
2023/01/21 06:43:23;;;;;;;30.62;15.25;;;;;;;2.52;80.67;100499.77;1756153;81;21230;-86
2023/01/21 06:46:30;;;;;;;35.88;13.20;;;;;;;2.53;80.33;100489.33;1754871;81;21165;-80
2023/01/21 06:49:37;;;;;;;23.87;10.70;;;;;;;2.46;80.81;100501.61;1755995;81;21184;-87
2023/01/21 06:52:43;;;;;;;36.63;14.38;;;;;;;2.34;81.01;100493.59;1755464;81;21192;-86
2023/01/21 06:55:49;;;;;;;24.00;12.03;;;;;;;2.38;81.09;100531.03;1755342;81;21224;-81
2023/01/21 06:58:47;;;;;;;25.40;12.53;;;;;;;2.35;81.49;100541.20;1755993;81;21236;-87
2023/01/21 07:01:40;;;;;;;30.12;13.00;;;;;;;2.48;81.23;100559.03;1754679;81;21228;-80
2023/01/21 07:04:49;;;;;;;61.75;27.00;;;;;;;2.57;80.96;100568.27;1755041;81;21232;-83
2023/01/21 07:07:55;;;;;;;;;;;;;;;2.55;80.76;100563.49;1758101;81;21200;-86
2023/01/21 07:11:01;;;;;;;33.18;14.50;;;;;;;2.38;81.32;100567.48;1756147;81;20199;-87
2023/01/21 07:14:06;;;;;;;30.62;13.78;;;;;;;2.50;81.39;100578.70;1744919;80;21196;-81
2023/01/21 07:17:13;;;;;;;26.27;13.58;;;;;;;2.33;82.01;100587.22;1745143;82;21190;-88
2023/01/21 07:20:20;;;;;;;39.00;14.80;;;;;;;2.10;82.73;100598.40;1745408;82;21236;-81
2023/01/21 07:23:26;;;;;;;32.50;14.38;;;;;;;2.13;83.03;100594.13;1744391;82;21176;-79
2023/01/21 07:26:36;;;;;;;27.62;13.78;;;;;;;2.26;82.72;100591.38;1744513;82;21149;-86
2023/01/21 07:29:40;;;;;;;32.88;13.80;;;;;;;2.26;82.84;100598.98;1745835;82;21149;-86
2023/01/21 07:32:46;;;;;;;35.60;13.32;;;;;;;2.39;82.42;100620.98;1745120;82;21248;-81
2023/01/21 07:35:52;;;;;;;24.45;13.78;;;;;;;2.41;82.33;100623.95;1744308;81;21205;-81
2023/01/21 07:38:58;;;;;;;28.35;13.90;;;;;;;2.44;82.26;100622.84;1744416;82;21185;-85
2023/01/21 07:42:03;;;;;;;27.10;13.98;;;;;;;2.44;82.18;100626.89;1745381;82;21184;-80
2023/01/21 07:45:10;;;;;;;30.43;13.38;;;;;;;2.45;82.18;100621.89;1745474;82;21221;-80
2023/01/21 07:48:17;;;;;;;32.48;14.65;;;;;;;2.52;82.15;100627.17;1744347;82;21185;-86
2023/01/21 07:51:22;;;;;;;40.10;16.42;;;;;;;2.58;81.83;100622.64;1745338;82;21177;-86
2023/01/21 07:54:28;;;;;;;35.68;16.75;;;;;;;2.47;81.99;100623.97;1745819;82;21161;-86
2023/01/21 07:57:34;;;;;;;29.90;13.85;;;;;;;2.43;82.32;100603.58;1745025;82;21212;-81
2023/01/21 08:00:40;;;;;;;32.98;15.23;;;;;;;2.50;81.78;100612.94;1745759;82;21781;-88
2023/01/21 08:03:48;;;;;;;38.48;14.95;;;;;;;2.41;82.27;100620.39;1745608;82;21232;-87
2023/01/21 08:06:55;;;;;;;29.63;14.60;;;;;;;2.47;82.26;100622.12;1744789;82;21197;-88
2023/01/21 08:10:02;;;;;;;28.05;14.33;;;;;;;2.49;82.23;100626.94;1745585;82;21228;-87
2023/01/21 08:13:09;;;;;;;30.75;15.38;;;;;;;2.57;82.47;100626.33;1744314;82;21205;-87
2023/01/21 08:16:16;;;;;;;36.73;15.18;;;;;;;2.56;82.25;100632.72;1745020;82;21177;-86
2023/01/21 08:19:22;;;;;;;28.23;12.90;;;;;;;2.51;82.44;100640.31;1745450;82;21240;-87
2023/01/21 08:22:27;;;;;;;28.77;13.88;;;;;;;2.41;82.60;100651.44;1745421;82;21192;-80
2023/01/21 08:25:33;;;;;;;26.23;13.13;;;;;;;2.49;82.79;100659.34;1746777;82;21193;-86
2023/01/21 08:28:37;;;;;;;34.48;14.70;;;;;;;2.32;83.35;100662.93;1745011;82;21252;-80
2023/01/21 08:31:43;;;;;;;35.73;14.47;;;;;;;2.56;82.61;100661.93;1746312;82;21249;-79
2023/01/21 08:34:42;;;;;;;30.43;14.20;;;;;;;2.72;82.10;100675.12;1746828;82;21187;-87
2023/01/21 08:37:49;;;;;;;29.05;13.48;;;;;;;2.71;82.01;100673.41;1745532;82;21189;-87
2023/01/21 08:40:54;;;;;;;31.55;13.43;;;;;;;2.70;82.25;100677.09;1746799;82;21213;-81
2023/01/21 08:44:01;;;;;;;24.47;12.63;;;;;;;2.76;82.12;100675.26;1746763;82;21725;-84
2023/01/21 08:47:07;;;;;;;34.08;14.18;;;;;;;2.91;81.63;100676.41;1746090;82;21781;-81
2023/01/21 08:50:14;;;;;;;26.10;13.43;;;;;;;2.84;81.84;100681.93;1746150;82;21798;-87
2023/01/21 08:53:18;;;;;;;30.97;13.43;;;;;;;3.03;81.28;100678.17;1745498;82;21193;-80
2023/01/21 08:56:23;;;;;;;38.45;14.90;;;;;;;3.13;81.01;100689.98;1745331;82;21181;-87
2023/01/21 08:59:28;;;;;;;27.93;14.95;;;;;;;3.19;80.90;100685.45;1746924;82;21201;-79
2023/01/21 09:02:31;;;;;;;73.35;28.50;;;;;;;3.15;80.63;100696.12;1746054;82;21200;-80
2023/01/21 09:05:36;;;;;;;34.70;17.48;;;;;;;3.25;80.60;100692.24;1746361;82;21188;-87
2023/01/21 09:08:42;;;;;;;50.63;21.35;;;;;;;3.31;80.25;100700.72;1745427;82;21200;-86
2023/01/21 09:11:47;;;;;;;44.53;22.58;;;;;;;3.32;80.31;100691.63;1746694;82;21192;-80
2023/01/21 09:14:54;;;;;;;47.48;20.30;;;;;;;3.44;80.64;100693.01;1747710;82;21222;-80
2023/01/21 09:18:00;;;;;;;52.60;24.92;;;;;;;3.52;80.83;100692.74;1735498;82;21179;-81
2023/01/21 09:21:10;;;;;;;50.78;23.57;;;;;;;3.64;80.30;100682.80;1705219;84;21195;-80
2023/01/21 09:24:17;;;;;;;46.13;22.70;;;;;;;3.67;79.46;100689.80;1735159;82;21165;-87
2023/01/21 09:27:26;;;;;;;45.05;22.60;;;;;;;3.74;79.13;100685.63;1705145;84;21759;-85
2023/01/21 09:30:30;;;;;;;44.10;19.85;;;;;;;3.74;78.70;100692.39;1736613;82;21238;-81
2023/01/21 09:33:36;;;;;;;40.98;18.25;;;;;;;3.80;78.73;100702.22;1705775;84;21223;-87
2023/01/21 09:36:41;;;;;;;38.95;18.98;;;;;;;3.89;78.29;100709.23;1736464;82;21159;-86
2023/01/21 09:39:47;;;;;;;34.65;16.85;;;;;;;3.81;78.63;100713.91;1705829;84;21179;-87
2023/01/21 09:42:52;;;;;;;35.70;15.80;;;;;;;3.88;78.72;100722.41;1735723;82;21195;-86
2023/01/21 09:45:59;;;;;;;30.65;14.28;;;;;;;3.97;78.68;100727.08;1705667;84;21163;-87
2023/01/21 09:49:05;;;;;;;22.42;12.50;;;;;;;4.08;78.67;100729.77;1736820;82;21156;-86
2023/01/21 09:52:39;;;;;;;24.82;12.55;;;;;;;4.15;78.33;100725.59;1705467;84;21191;-87
2023/01/21 09:55:50;;;;;;;28.83;13.25;;;;;;;4.10;78.46;100717.84;1736693;82;21165;-86
2023/01/21 09:59:00;;;;;;;31.40;14.28;;;;;;;4.44;77.52;100700.67;1704650;84;21220;-80
2023/01/21 10:02:06;;;;;;;27.42;14.30;;;;;;;4.38;77.68;100710.67;1736736;82;21196;-86
2023/01/21 10:05:32;;;;;;;33.35;13.05;;;;;;;4.45;77.14;100698.32;1705849;84;21709;-82
2023/01/21 10:09:03;;;;;;;25.48;13.03;;;;;;;4.56;76.50;100696.45;1735721;82;21748;-86
2023/01/21 10:12:37;;;;;;;25.20;12.18;;;;;;;4.55;77.03;100705.55;1704291;84;21250;-81
2023/01/21 10:16:11;;;;;;;54.15;25.85;;;;;;;4.67;76.97;100705.03;1736211;80;21229;-86
2023/01/21 10:19:21;;;;;;;42.88;18.27;;;;;;;4.95;76.31;100715.75;1737451;82;21178;-86
2023/01/21 10:22:32;;;;;;;;;;;;;;;5.19;74.92;100712.80;1740470;82;21200;-80
2023/01/21 10:25:39;;;;;;;46.10;23.83;;;;;;;5.32;74.35;100726.16;1738746;82;20433;-85
2023/01/21 10:28:47;;;;;;;51.60;22.73;;;;;;;5.28;74.06;100716.57;1737846;82;21205;-80
2023/01/21 10:32:07;;;;;;;52.93;23.73;;;;;;;5.38;73.95;100721.55;1739018;82;21778;-86
2023/01/21 10:35:02;;;;;;;52.20;25.37;;;;;;;5.38;74.06;100723.77;1738800;82;21483;-84
2023/01/21 10:37:52;;;;;;;50.23;24.52;;;;;;;5.36;73.73;100716.74;1729172;82;21201;-87
2023/01/21 10:41:02;;;;;;;51.70;25.35;;;;;;;5.21;74.45;100718.94;1738898;82;21162;-82
2023/01/21 10:44:48;;;;;;;30.60;13.88;;;;;;;5.31;73.86;100719.00;1738823;82;21158;-81
2023/01/21 10:48:15;;;;;;;30.92;13.72;;;;;;;5.39;74.01;100716.48;1738879;82;21185;-81
2023/01/21 10:51:57;;;;;;;24.52;13.08;;;;;;;5.60;72.62;100713.77;1738761;82;21459;-86
2023/01/21 10:55:35;;;;;;;33.58;14.90;;;;;;;5.53;72.88;100705.80;1738748;82;21142;-82
2023/01/21 10:58:51;;;;;;;31.27;13.72;;;;;;;5.69;72.28;100708.86;1737275;82;21205;-80
2023/01/21 11:01:59;;;;;;;32.90;13.40;;;;;;;5.63;72.35;100718.41;1738755;82;21189;-80
2023/01/21 11:05:10;;;;;;;34.30;15.30;;;;;;;5.56;73.24;100724.53;1738752;82;21813;-80
2023/01/21 11:08:20;;;;;;;33.67;15.78;;;;;;;5.64;72.82;100723.34;1738544;82;21153;-80
2023/01/21 11:11:31;;;;;;;;;;;;;;;5.79;72.31;100730.66;1733655;82;21201;-86
2023/01/21 11:14:37;;;;;;;30.02;15.45;;;;;;;5.88;72.18;100734.77;1738646;82;20212;-80
2023/01/21 11:17:46;;;;;;;32.17;14.55;;;;;;;6.00;71.65;100734.70;1739042;82;21799;-85
2023/01/21 11:20:52;;;;;;;30.92;15.23;;;;;;;5.86;71.19;100737.25;1741250;82;21573;-81
2023/01/21 11:24:06;;;;;;;42.05;18.50;;;;;;;5.76;72.08;100733.13;1737911;82;21200;-80
2023/01/21 11:27:11;;;;;;;30.52;16.62;;;;;;;5.86;72.01;100738.10;1713895;82;21184;-81
2023/01/21 11:30:36;;;;;;;33.53;15.08;;;;;;;5.91;72.19;100741.77;1733029;83;21699;-80
2023/01/21 11:33:43;;;;;;;35.55;16.60;;;;;;;5.98;72.18;100744.86;1691381;84;21206;-84
2023/01/21 11:37:07;;;;;;;29.00;15.23;;;;;;;6.01;71.90;100742.70;1733279;82;21236;-80
2023/01/21 11:40:32;;;;;;;48.75;21.87;;;;;;;5.98;71.83;100747.06;1764594;81;21153;-86
2023/01/21 11:43:54;;;;;;;54.25;26.87;;;;;;;5.93;72.16;100755.23;1770307;80;21201;-85
2023/01/21 11:46:59;;;;;;;47.45;21.90;;;;;;;5.87;72.20;100757.46;1770566;80;21209;-80
2023/01/21 11:50:11;;;;;;;50.03;24.43;;;;;;;5.96;72.32;100763.98;1770549;81;21448;-81
2023/01/21 11:53:24;;;;;;;52.83;26.65;;;;;;;6.09;71.88;100774.62;1769210;80;21162;-86
2023/01/21 11:56:30;;;;;;;43.20;22.45;;;;;;;6.28;71.46;100783.34;1733721;82;21145;-86
2023/01/21 11:59:41;;;;;;;43.08;23.10;;;;;;;6.46;71.07;100787.64;1740887;82;21233;-86
2023/01/21 12:02:50;;;;;;;54.15;24.50;;;;;;;6.48;71.24;100793.78;1741107;82;21199;-86
2023/01/21 12:05:57;;;;;;;47.93;24.98;;;;;;;6.59;70.52;100807.28;1741330;82;21550;-82
2023/01/21 12:09:06;;;;;;;44.95;20.43;;;;;;;6.68;70.13;100806.92;1741069;82;21240;-81
2023/01/21 12:12:40;;;;;;;41.63;20.30;;;;;;;6.60;70.26;100810.35;1741286;82;21773;-80
2023/01/21 12:16:12;;;;;;;50.67;24.52;;;;;;;6.57;70.06;100813.34;1741167;82;21137;-81
2023/01/21 12:19:42;;;;;;;44.95;23.75;;;;;;;6.71;69.61;100827.05;1734871;80;21224;-80
2023/01/21 12:23:05;;;;;;;42.53;21.17;;;;;;;6.67;69.81;100835.97;1738659;82;21849;-86
2023/01/21 12:26:30;;;;;;;42.27;21.10;;;;;;;6.82;69.54;100846.84;1738775;82;21191;-84
2023/01/21 12:30:06;;;;;;;47.23;21.95;;;;;;;6.78;69.33;100841.81;1738784;82;21156;-78
2023/01/21 12:33:24;;;;;;;46.80;22.00;;;;;;;6.79;69.58;100849.83;1738827;82;21225;-86
2023/01/21 12:36:39;;;;;;;51.85;22.80;;;;;;;6.76;69.69;100863.69;1738228;82;21755;-80
2023/01/21 12:39:45;;;;;;;47.67;22.37;;;;;;;6.69;69.97;100863.03;1737567;82;21774;-80
2023/01/21 12:42:58;;;;;;;39.03;18.17;;;;;;;6.73;69.87;100862.62;1730758;82;21196;-80
2023/01/21 12:46:33;;;;;;;35.50;17.80;;;;;;;6.70;69.56;100862.03;1738773;82;21157;-80
2023/01/21 12:50:08;;;;;;;37.53;18.67;;;;;;;6.62;69.92;100865.42;1738764;82;21193;-85
2023/01/21 12:53:48;;;;;;;45.28;20.95;;;;;;;6.66;69.96;100869.09;1738759;82;21197;-85
2023/01/21 12:57:06;;;;;;;69.87;32.55;;;;;;;6.74;69.95;100871.13;1738387;82;21209;-82
2023/01/21 13:00:22;;;;;;;49.88;26.17;;;;;;;6.74;70.21;100871.13;1737681;82;21666;-80
2023/01/21 13:03:38;;;;;;;51.23;24.12;;;;;;;6.50;71.34;100875.55;1737951;82;21232;-86
2023/01/21 13:06:48;;;;;;;43.35;22.87;;;;;;;6.50;71.50;100876.05;1738123;82;21205;-85
2023/01/21 13:10:29;;;;;;;46.18;23.77;;;;;;;6.51;71.77;100885.92;1738031;82;21209;-86
2023/01/21 13:13:42;;;;;;;50.85;25.08;;;;;;;6.56;71.85;100885.01;1738658;82;21221;-80
2023/01/21 13:16:50;;;;;;;49.98;23.10;;;;;;;6.48;72.09;100884.82;1738746;82;21723;-80
2023/01/21 13:19:56;;;;;;;55.17;24.95;;;;;;;6.46;72.52;100882.75;1738600;80;21194;-86
2023/01/21 13:23:22;;;;;;;50.38;24.90;;;;;;;6.48;73.10;100882.10;1738583;82;21193;-80
2023/01/21 13:26:28;;;;;;;48.30;22.22;;;;;;;6.50;73.42;100884.20;1738740;82;21193;-86
2023/01/21 13:30:15;;;;;;;45.78;22.05;;;;;;;6.17;73.61;100879.38;1738808;82;21161;-86
2023/01/21 13:33:43;;;;;;;53.87;21.68;;;;;;;6.44;73.38;100883.37;1738923;82;21197;-85
2023/01/21 13:37:13;;;;;;;47.17;21.12;;;;;;;6.51;72.95;100880.48;1738618;82;21232;-86
2023/01/21 13:40:46;;;;;;;44.48;19.92;;;;;;;6.44;73.32;100886.08;1737955;82;21197;-80
2023/01/21 13:44:36;;;;;;;45.20;19.48;;;;;;;5.89;75.54;100890.39;1738630;82;21181;-86
2023/01/21 13:48:21;;;;;;;46.53;20.75;;;;;;;5.77;75.91;100894.14;1738017;82;21758;-81
2023/01/21 13:51:58;;;;;;;41.48;19.65;;;;;;;5.56;77.11;100898.20;1737685;82;21221;-80
2023/01/21 13:55:05;;;;;;;40.10;17.92;;;;;;;5.59;77.65;100896.56;1735452;82;21802;-80
2023/01/21 13:58:17;;;;;;;35.17;16.57;;;;;;;5.53;77.88;100898.45;1737576;82;21224;-86
2023/01/21 14:01:47;;;;;;;56.95;22.13;;;;;;;5.46;78.16;100902.19;1740398;82;21202;-87
2023/01/21 14:05:11;;;;;;;60.65;24.92;;;;;;;5.47;78.62;100910.69;1738773;82;21711;-80
2023/01/21 14:08:28;;;;;;;33.30;17.45;;;;;;;5.37;78.72;100915.17;1738881;82;21332;-86
2023/01/21 14:11:59;;;;;;;49.83;20.00;;;;;;;5.30;78.91;100916.16;1738590;82;21790;-80
2023/01/21 14:15:23;;;;;;;41.70;20.55;;;;;;;5.15;79.71;100928.78;1738951;82;21141;-81
2023/01/21 14:19:15;;;;;;;52.00;19.65;;;;;;;5.31;80.26;100935.50;1738780;82;21189;-80
2023/01/21 14:22:32;;;;;;;;;;;;;;;5.52;79.71;100941.51;1740273;82;21211;-86
2023/01/21 14:26:16;;;;;;;42.55;19.90;;;;;;;5.62;79.64;100945.17;1738145;82;20196;-85
2023/01/21 14:29:38;;;;;;;42.55;18.10;;;;;;;5.76;78.77;100946.22;1738596;82;21237;-86
2023/01/21 14:33:03;;;;;;;46.95;19.07;;;;;;;5.86;78.30;100954.45;1737297;82;21205;-80
2023/01/21 14:36:25;;;;;;;38.73;17.10;;;;;;;5.89;78.43;100956.91;1738791;82;21205;-86
2023/01/21 14:40:20;;;;;;;28.23;14.65;;;;;;;5.80;78.54;100957.19;1738713;82;21193;-86
2023/01/21 14:43:43;;;;;;;29.40;15.10;;;;;;;5.79;78.55;100959.55;1738866;82;21205;-80
2023/01/21 14:46:47;;;;;;;29.92;15.32;;;;;;;5.87;78.09;100974.67;1738883;82;21742;-86
2023/01/21 14:49:54;;;;;;;26.95;14.53;;;;;;;5.89;77.79;100983.56;1738805;82;21153;-85
2023/01/21 14:52:59;;;;;;;30.20;15.58;;;;;;;5.79;77.76;100989.91;1738902;82;21723;-81
2023/01/21 14:56:30;;;;;;;30.17;14.80;;;;;;;5.79;77.36;100997.55;1739206;81;21754;-80
2023/01/21 14:59:47;;;;;;;29.82;15.35;;;;;;;5.72;77.56;100999.05;1736150;82;21168;-87
2023/01/21 15:02:53;;;;;;;32.78;15.78;;;;;;;5.68;77.33;101001.64;1735241;82;21161;-86